Hanapepe, Hawaii
Current Conditions -  °F | °C
As of 8:56 PM on Saturday 22 Nov 2014 (Local Time) from PHBK Reporting Station
Clear Clear  
Wind Chill: 73°   Ceiling: Unl
Heat Index: 73°   Visibility: 10mi
Dew Point: 67°   Wind: 6mph
Humidity: 81%   Direction: 80°E
Pressure: 30.04"   Gusts: NA
Location:  21.9°N, 159.59°W
Report Text: PHBK 230656Z AUTO 08005KT 10SM CLR 23/19 A3004 RMK AO2 SLP174 T02280194 $
Loading
Personal Weather Stations






























Interactive Weather Map New forecast layout! Learn more

10-Day Weather Forecast

Advertisements
Track Severe Weather on mobile